Home > Products > Valid Products > TAF

000
FTUS41 KALY 021300 AAA
TAFGFL
TAF AMD
KGFL 021345Z 0214/0312 20003KT P6SM SCT050 SCT100
     FM021600 20007KT P6SM VCSH BKN060 PROB30 0223/0302 3SM -TSRA BR
      OVC025CB
     FM030200 25005KT P6SM VCSH BKN060
     FM030700 24003KT 2SM BR BKN003=



000
FTUS41 KALY 021100 RRA
TAFPOU
TAF
KPOU 021141Z 0212/0312 00000KT P6SM FEW060 SCT250
     FM021500 23006KT P6SM SCT060
      TEMPO 0215/0219 BKN060
     FM022200 21008KT P6SM VCSH BKN060 PROB30 0222/0304 3SM -TSRA BR
      OVC025CB
     FM030400 28004KT P6SM VCSH OVC060
     FM030600 VRB03KT 5SM BR BKN060=



000
FTUS41 KALY 021100 RRA
TAFGFL
TAF
KGFL 021141Z 0212/0312 20003KT P6SM SCT006 OVC025
      TEMPO 0212/0213 2SM BR BKN007
     FM021500 20007KT P6SM VCSH BKN060 PROB30 0223/0302 3SM -TSRA BR
      OVC025CB
     FM030200 25005KT P6SM VCSH BKN060
     FM030700 24003KT 2SM BR BKN003=



000
FTUS41 KALY 021100 RRA
TAFALB
TAF
KALB 021141Z 0212/0312 17008KT P6SM VCSH FEW035 SCT070 BKN250
     FM021600 20008KT P6SM SCT060
     FM022100 21008KT P6SM VCSH BKN060 PROB30 0223/0303 3SM -TSRA BR
      OVC025CB
     FM030300 27007KT P6SM VCSH OVC060
     FM030700 29006KT P6SM BKN060=



000
FTUS41 KALY 021000 AAB
TAFGFL
TAF AMD
KGFL 021044Z 0211/0306 00000KT 3/4SM BR SCT004 BKN030
     FM021100 00000KT 5SM BR FEW004 BKN030
      TEMPO 0211/0212 2SM BR BKN004
     FM021200 20003KT P6SM BKN070
     FM021600 20007KT P6SM VCSH BKN060 PROB30 0220/0302 3SM -TSRA BR
      OVC025CB
     FM030200 25005KT P6SM VCSH BKN060=



000
FTUS41 KALY 021000 AAA
TAFGFL
TAF AMD
KGFL 021042Z 0211/0306 00000KT 1 1/2SM BR SCT002 BKN030
     FM021100 00000KT 5SM BR FEW002 BKN030
      TEMPO 0211/0212 2SM BR
     FM021200 20003KT P6SM BKN070
     FM021600 20007KT P6SM VCSH BKN060 PROB30 0220/0302 3SM -TSRA BR
      OVC025CB
     FM030200 25005KT P6SM VCSH BKN060=



000
FTUS41 KALY 020500 RRA
TAFPOU
TAF
KPOU 020546Z 0206/0306 VRB02KT 6SM BR SCT080
      TEMPO 0207/0211 3SM BR
     FM021300 18005KT P6SM BKN080
     FM022200 21008KT P6SM VCSH BKN060 PROB30 0222/0304 3SM -TSRA BR
      OVC025CB
     FM030400 28004KT P6SM VCSH BKN060=



000
FTUS41 KALY 020500 RRA
TAFGFL
TAF
KGFL 020546Z 0206/0306 00000KT 6SM BR SCT060
      TEMPO 0207/0211 2SM BR BKN005
     FM021200 20003KT P6SM BKN070
     FM021600 20007KT P6SM VCSH BKN060 PROB30 0220/0302 3SM -TSRA BR
      OVC025CB
     FM030200 25005KT P6SM VCSH BKN060=



000
FTUS41 KALY 020500 RRA
TAFALB
TAF
KALB 020546Z 0206/0306 18005KT P6SM BKN080
      TEMPO 0207/0211 4SM BR
     FM021500 20008KT P6SM SCT060
     FM022100 21008KT P6SM VCSH BKN060 PROB30 0221/0303 3SM -TSRA BR
      OVC025CB
     FM030300 27007KT P6SM VCSH BKN060=



000
FTUS41 KALY 020200 AAA
TAFPOU
TAF AMD
KPOU 020259Z 0203/0224 VRB03KT P6SM SCT100
     FM020500 00000KT 4SM BR SCT100
     FM020800 00000KT 1SM BR SCT003 SCT250
     FM021300 22006KT P6SM SCT250
     FM021600 22007KT P6SM SCT050 SCT100 BKN200=



000
FTUS41 KALY 020200 AAA
TAFGFL
TAF AMD
KGFL 020258Z 0203/0224 VRB03KT 3SM BR SCT050 SCT100 SCT250
      TEMPO 0203/0206 1SM BR BKN002 BKN050
     FM020600 00000KT 1/2SM FG VV002
     FM021300 20005KT 6SM BR VCFG SCT002 BKN025 BKN100
     FM021500 19005KT 6SM HZ BKN050 BKN100 PROB30 0215/0221 3SM
      -TSRA BR BKN045CB=



000
FTUS41 KALY 020200 AAA
TAFALB
TAF AMD
KALB 020257Z 0203/0224 18004KT P6SM BCFG FEW050 SCT100 SCT250
      TEMPO 0203/0206 1SM BR BKN002
     FM020600 VRB03KT 1SM BR BKN002
     FM021300 20005KT 6SM BR VCFG SCT002 BKN025 BKN100
     FM021500 19005KT 6SM HZ BKN050 BKN100 PROB30 0215/0221 3SM
      -TSRA BR BKN045CB=



000
FTUS41 KALY 012300
TAFALB
TAF
KALB 012320Z 0200/0224 15005KT P6SM FEW050 SCT100
     FM020300 VRB03KT 5SM BR FEW050 SCT100 SCT250
      TEMPO 0203/0206 1SM BR BKN002
     FM020600 VRB02KT 3/4SM BR BKN002
     FM021300 20005KT 6SM BR VCFG SCT002 BKN025 BKN100
     FM021500 19005KT 6SM HZ BKN050 BKN100 PROB30 0215/0221 3SM
      -TSRA BR BKN045CB=



000
FTUS41 KALY 012300
TAFGFL
TAF
KGFL 012320Z 0200/0224 16005KT P6SM FEW050 SCT100
     FM020300 VRB03KT 3SM BR FEW050 SCT100 SCT250
      TEMPO 0203/0206 1SM BR BKN002
     FM020600 00000KT 1/2SM FG VV002
     FM021300 20005KT 6SM BR VCFG SCT002 BKN025 BKN100
     FM021500 19005KT 6SM HZ BKN050 BKN100 PROB30 0215/0221 3SM
      -TSRA BR BKN045CB=



000
FTUS41 KALY 012300
TAFPOU
TAF
KPOU 012320Z 0200/0224 VRB03KT P6SM FEW100
     FM020500 00000KT 4SM BR FEW100
     FM020800 00000KT 1SM BR SCT003 SCT250
     FM021300 22006KT P6SM SCT250
     FM021600 22007KT P6SM SCT050 SCT100 BKN200=



000
FTUS41 KALY 011700
TAFGFL
TAF
KGFL 011736Z 0118/0218 20006KT P6SM SCT045
     FM020000 VRB03KT P6SM SKC
     FM020200 VRB03KT 3SM BR SCT250
     FM020400 00000KT 1SM BR BKN002
     FM020600 00000KT 1/2SM FG VV002
     FM021300 20005KT 6SM BR SCT002 BKN025=



000
FTUS41 KALY 011700
TAFPOU
TAF
KPOU 011736Z 0118/0218 23008KT P6SM SCT040 BKN060
     FM012000 22007KT P6SM SCT060
     FM020100 00000KT P6SM SKC
     FM020600 00000KT 4SM BR SKC
     FM020800 00000KT 1SM BR SCT003 SCT250
     FM021300 22006KT P6SM BKN250=



000
FTUS41 KALY 011700
TAFALB
TAF
KALB 011736Z 0118/0218 24007KT P6SM SCT050
     FM020000 18004KT P6SM SKC
     FM020400 19004KT 5SM BR SCT002 SCT250
     FM020700 VRB03KT 3/4SM BR BKN002
     FM021300 20006KT P6SM SCT100 BKN250=



000
FTUS41 KALY 011500 AAB
TAFPOU
TAF AMD
KPOU 011503Z 0115/0212 VRB03KT P6SM BKN012
      TEMPO 0115/0118 SCT012 SCT050
     FM011800 22005KT P6SM VCSH BKN050
     FM020100 00000KT P6SM SKC
     FM020700 00000KT 3SM BR SKC=



000
FTUS41 KALY 011400 AAA
TAFPOU
TAF AMD
KPOU 011402Z 0114/0212 VRB03KT P6SM BKN015
      TEMPO 0114/0115 SCT015 BKN050
     FM011500 24004KT P6SM BKN050
     FM011800 22005KT P6SM VCSH BKN050
     FM020100 00000KT P6SM SKC
     FM020700 00000KT 3SM BR SKC=



000
FTUS41 KALY 011400 AAA
TAFGFL
TAF AMD
KGFL 011401Z 0114/0212 24005KT P6SM OVC003
      TEMPO 0114/0115 SCT003
     FM011500 19005KT P6SM SCT035
     FM011900 19006KT P6SM VCSH SCT045
     FM020000 VRB03KT P6SM SKC
     FM020300 00000KT 3SM BR SKC
     FM020500 00000KT 2SM BR BKN002
     FM020700 00000KT 1/2SM FG VV002=



000
FTUS41 KALY 011200 AAA
TAFALB
TAF AMD
KALB 011257Z 0113/0212 VRB03KT P6SM FEW004 BKN070
     FM011900 23007KT P6SM VCSH SCT050
     FM020000 18004KT P6SM SKC
     FM020500 18003KT 4SM BR SCT003
     FM020800 18003KT 2SM BR BKN003=



000
FTUS41 KALY 011100
TAFALB
TAF
KALB 011140Z 0112/0212 16004KT 4SM BR SCT003 SCT150
      TEMPO 0112/0113 2SM BR OVC003
     FM011300 21005KT P6SM SCT050
     FM011900 23007KT P6SM VCSH SCT050
     FM020000 18004KT P6SM SKC
     FM020500 18003KT 4SM BR SCT003
     FM020800 18003KT 2SM BR BKN003=



000
FTUS41 KALY 011100
TAFGFL
TAF
KGFL 011140Z 0112/0212 VRB03KT 1/2SM FG VV002
      TEMPO 0113/0114 2SM BR SCT002
     FM011400 19005KT P6SM SCT035
     FM011900 19006KT P6SM VCSH SCT045
     FM020000 VRB03KT P6SM SKC
     FM020300 00000KT 3SM BR SKC
     FM020500 00000KT 2SM BR BKN002
     FM020700 00000KT 1/2SM FG VV002=



000
FTUS41 KALY 011100
TAFPOU
TAF
KPOU 011140Z 0112/0212 VRB03KT P6SM OVC070
      TEMPO 0112/0113 5SM BR
     FM011500 24004KT P6SM BKN050
     FM011800 22005KT P6SM VCSH BKN050
     FM020100 00000KT P6SM SKC
     FM020700 00000KT 3SM BR SKC=



000
FTUS41 KALY 011000 AAC
TAFALB
TAF AMD
KALB 011008Z 0110/0206 00000KT 2SM BR OVC003
      TEMPO 0110/0112 3/4SM BR OVC002
     FM011200 00000KT 4SM BR SCT003 SCT150
      TEMPO 0112/0113 2SM BR OVC003
     FM011300 21005KT P6SM SCT050
     FM011900 23007KT P6SM VCSH SCT050
     FM020000 18004KT P6SM SKC=



000
FTUS41 KALY 011000 AAB
TAFGFL
TAF AMD
KGFL 011003Z 0110/0206 00000KT 1/2SM FG VV002
      TEMPO 0111/0112 2SM BR SCT002
     FM011200 00000KT 4SM BR SCT002
      TEMPO 0112/0113 2SM BR BKN002
     FM011300 19005KT P6SM SCT035
     FM011900 19006KT P6SM VCSH SCT045
     FM020000 VRB03KT P6SM SKC
     FM020300 00000KT 3SM BR SKC=



000
FTUS41 KALY 010900 AAB
TAFALB
TAF AMD
KALB 010940Z 0110/0206 00000KT 2SM BR OVC003
      TEMPO 0110/0111 3SM BR SCT003 SCT150
     FM011100 00000KT 4SM BR SCT002 SCT150
      TEMPO 0111/0112 2SM BR OVC002
     FM011300 21005KT P6SM SCT050
     FM011900 23007KT P6SM VCSH SCT050
     FM020000 18004KT P6SM SKC=



000
FTUS41 KALY 010700 AAA
TAFGFL
TAF AMD
KGFL 010705Z 0107/0206 00000KT 1SM BR SCT002
      TEMPO 0107/0111 1/4SM FG VV002
     FM011100 00000KT 3SM BR SCT002
      TEMPO 0111/0112 3/4SM BR VV002
     FM011300 19005KT P6SM SCT035
     FM011900 19006KT P6SM VCSH SCT045
     FM020000 VRB03KT P6SM SKC
     FM020300 00000KT 3SM BR SKC=



000
FTUS41 KALY 010700 AAA
TAFALB
TAF AMD
KALB 010704Z 0107/0206 00000KT 1 1/2SM BR SCT002 BKN150
      TEMPO 0107/0111 1/2SM FG OVC002
     FM011100 00000KT 3SM BR SCT002 SCT150
      TEMPO 0111/0112 1SM BR OVC002
     FM011300 21005KT P6SM SCT050
     FM011900 23007KT P6SM VCSH SCT050
     FM020000 18004KT P6SM SKC=



000
FTUS41 KALY 010500 RRA
TAFALB
TAF
KALB 010557Z 0106/0206 18004KT 3SM BR SCT003 BKN150
      TEMPO 0106/0110 2SM BR BKN003
     FM011000 00000KT 3SM BR SCT002 SCT150
      TEMPO 0110/0112 1SM BR VV002
     FM011300 21005KT P6SM SCT050
     FM011900 23007KT P6SM VCSH SCT050
     FM020000 18004KT P6SM SKC=



000
FTUS41 KALY 010500 RRA
TAFGFL
TAF
KGFL 010557Z 0106/0206 00000KT 4SM BR SCT003 BKN200
      TEMPO 0106/0110 2SM BR BKN003
     FM011000 00000KT 3SM BR SCT002
      TEMPO 0110/0112 1SM BR VV002
     FM011300 19005KT P6SM SCT035
     FM011900 19006KT P6SM VCSH SCT045
     FM020000 VRB03KT P6SM SKC
     FM020300 00000KT 3SM BR SKC=



000
FTUS41 KALY 010500 RRA
TAFPOU
TAF
KPOU 010557Z 0106/0206 00000KT P6SM BKN150
      TEMPO 0107/0111 3SM BR
     FM011400 24004KT P6SM BKN050
     FM011800 22005KT P6SM VCSH BKN050
     FM020100 VRB03KT P6SM SKC=



000
FTUS41 KALY 010300 AAB
TAFGFL
TAF AMD
KGFL 010357Z 0104/0124 24003KT 6SM BR BKN200
      TEMPO 0104/0106 2SM BR SCT002
     FM010600 00000KT 1/2SM FG OVC002
     FM011400 18005KT P6SM BKN040=



000
FTUS41 KALY 010200 AAA
TAFPOU
TAF AMD
KPOU 010203Z 0102/0124 00000KT P6SM SKC
     FM010600 00000KT 4SM BR OVC015
     FM011500 VRB03KT P6SM BKN050
     FM012100 22004KT P6SM BKN100=



000
FTUS41 KALY 010200 AAA
TAFGFL
TAF AMD
KGFL 010202Z 0102/0124 24003KT 1 1/2SM BR FEW003 BKN080 OVC090
     FM010600 00000KT 1/2SM FG OVC002
     FM011400 18005KT P6SM BKN040=



000
FTUS41 KALY 312300
TAFGFL
TAF
KGFL 312332Z 0100/0124 14003KT P6SM -RA FEW040 SCT070 BKN110
      TEMPO 0100/0102 5SM -RA BR FEW015 OVC030
     FM010600 00000KT 2SM BR OVC009
     FM011400 18005KT P6SM BKN040=



000
FTUS41 KALY 312300
TAFPOU
TAF
KPOU 312332Z 0100/0124 19003KT P6SM FEW070 OVC090
     FM010200 20003KT 5SM BR VCSH OVC035
     FM010600 00000KT 4SM BR OVC015
     FM011500 VRB03KT P6SM BKN050
     FM012100 22004KT P6SM BKN100=



000
FTUS41 KALY 312300
TAFALB
TAF
KALB 312332Z 0100/0124 18007KT P6SM VCSH BKN060 BKN070 OVC140
     FM010600 21003KT 4SM BR SCT009 OVC015
     FM011400 21005KT P6SM BKN040
     FM012100 30006KT P6SM FEW040 SCT250=



000
FTUS41 KALY 312200 AAB
TAFGFL
TAF AMD
KGFL 312228Z 3122/0118 00000KT 5SM BR SCT008 SCT110
     FM010000 VRB03KT 5SM BR VCSH SCT009 OVC025
     FM010600 00000KT 2SM BR OVC009
     FM011400 VRB03KT P6SM BKN040=



000
FTUS41 KALY 312200 AAB
TAFPOU
TAF AMD
KPOU 312216Z 3122/0118 17005KT 2SM +RA BR BKN030 OVC050
     FM312300 19005KT P6SM -RA BKN040 OVC080
     FM010200 20003KT 5SM BR VCSH OVC035
     FM010600 00000KT 4SM BR OVC025
     FM011500 VRB03KT P6SM BKN050=



000
FTUS41 KALY 312100 AAA
TAFGFL
TAF AMD
KGFL 312116Z 3121/0118 00000KT 1/2SM +RA FG BKN011 BKN017 OVC023
      TEMPO 3121/3122 3SM -TSRA BR OVC020CB
     FM312200 20006KT 5SM -SHRA BR OVC025
     FM010000 VRB03KT 5SM BR VCSH SCT009 OVC025
     FM010600 00000KT 2SM BR OVC009
     FM011400 VRB03KT P6SM BKN040=



000
FTUS41 KALY 312100 CCA
TAFPOU
TAF COR
KPOU 312111Z 3121/0118 18004KT P6SM FEW040 FEW050 SCT060
      TEMPO 3121/3123 26025G35KT 3SM TSRA OVC020CB
     FM010200 20003KT 5SM BR VCSH OVC035
     FM010600 00000KT 4SM BR OVC025
     FM011500 VRB03KT P6SM BKN050=



000
FTUS41 KALY 312100 AAA
TAFPOU
TAF AMD
KPOU 312110Z 3121/0118 18004KT P6SM FEW040 FEW050 SCT060
      TEMPO 3121/3123 3SM TSRA OVC020CB
     FM010200 20003KT 5SM BR VCSH OVC035
     FM010600 00000KT 4SM BR OVC025
     FM011500 VRB03KT P6SM BKN050=



000
FTUS41 KALY 311700
TAFPOU
TAF
KPOU 311722Z 3118/0118 23006KT P6SM VCSH OVC015
      TEMPO 3118/3120 SCT015 OVC050
     FM312000 23007KT 5SM -SHRA BR OVC035
      TEMPO 3120/3124 3SM TSRA OVC020CB
     FM010200 20003KT 5SM BR VCSH OVC035
     FM010600 00000KT 4SM BR OVC025
     FM011500 VRB03KT P6SM BKN050=



000
FTUS41 KALY 311700
TAFGFL
TAF
KGFL 311722Z 3118/0118 19007KT P6SM -SHRA SCT025 BKN050 OVC100
      TEMPO 3118/3122 3SM -TSRA BR OVC020CB
     FM312200 20006KT 5SM -SHRA BR OVC025
     FM010000 VRB03KT 5SM BR VCSH SCT009 OVC025
     FM010600 00000KT 2SM BR OVC009
     FM011400 VRB03KT P6SM BKN040=



000
FTUS41 KALY 311700
TAFALB
TAF
KALB 311722Z 3118/0118 18008KT P6SM -SHRA SCT040 OVC100
      TEMPO 3118/3122 3SM TSRA OVC030CB
     FM312200 19007KT P6SM -SHRA SCT030 OVC050
     FM010000 20005KT 6SM BR VCSH OVC035
     FM010600 21003KT 4SM BR SCT009 OVC015
     FM011400 21005KT P6SM BKN040=



000
FTUS41 KALY 311400 AAA
TAFPOU
TAF AMD
KPOU 311405Z 3114/0112 20005KT P6SM OVC015
     FM311700 22007KT P6SM VCSH OVC025
     FM311900 22007KT 5SM -SHRA BR OVC035
      TEMPO 3119/3123 3SM TSRA OVC020CB
     FM010200 20003KT 5SM BR VCSH OVC035
     FM010700 VRB02KT 4SM BR OVC025=



000
FTUS41 KALY 311100
TAFGFL
TAF
KGFL 311131Z 3112/0112 20005KT P6SM VCSH SCT025 BKN050
      TEMPO 3112/3114 4SM -SHRA BR OVC025
     FM311400 21007KT P6SM VCSH OVC035
      TEMPO 3114/3116 4SM -SHRA OVC030
     FM311600 21007KT 5SM -SHRA BR OVC030
      TEMPO 3116/3120 3SM TSRA OVC020CB
     FM010000 20003KT 5SM BR VCSH OVC025
     FM010700 VRB02KT 2SM BR OVC009=



000
FTUS41 KALY 311100
TAFALB
TAF
KALB 311131Z 3112/0112 17008KT P6SM SCT080 BKN150
      TEMPO 3112/3114 BKN040 OVC080
     FM311400 18009KT P6SM VCSH OVC040
     FM311700 18009KT 5SM -SHRA BR OVC035
      TEMPO 3117/3121 3SM TSRA OVC020CB
     FM010100 20005KT 6SM BR VCSH OVC035
     FM010700 21003KT 4SM BR OVC015=



000
FTUS41 KALY 311100
TAFPOU
TAF
KPOU 311131Z 3112/0112 VRB02KT P6SM OVC020
     FM311400 19004KT P6SM OVC035
     FM311700 22007KT P6SM VCSH OVC040
     FM311900 22007KT 5SM -SHRA BR OVC035
      TEMPO 3119/3123 3SM TSRA OVC020CB
     FM010200 20003KT 5SM BR VCSH OVC035
     FM010700 VRB02KT 4SM BR OVC025=



000
FTUS41 KALY 311000 AAB
TAFPOU
TAF AMD
KPOU 311003Z 3110/0106 VRB02KT P6SM OVC020
     FM311400 19004KT P6SM OVC035
     FM311700 22007KT P6SM VCSH OVC040
     FM312000 22007KT 5SM -SHRA BR OVC030 PROB30 3121/0101 3SM TSRA
      OVC020CB
     FM010200 20003KT 5SM BR VCSH OVC035=



000
FTUS41 KALY 310900 AAA
TAFGFL
TAF AMD
KGFL 310948Z 3110/0106 20005KT P6SM VCSH OVC030
      TEMPO 3111/3115 4SM -SHRA BR OVC025
     FM311500 21007KT P6SM VCSH OVC035
      TEMPO 3115/3118 4SM -SHRA OVC030
     FM311800 21007KT 5SM -SHRA BR OVC030 PROB30 3119/3123 3SM TSRA
      OVC020CB
     FM010100 20003KT 5SM BR VCSH OVC025=



000
FTUS41 KALY 310900 AAA
TAFPOU
TAF AMD
KPOU 310928Z 3109/0106 VRB02KT P6SM OVC035
     FM311300 19004KT P6SM OVC035
     FM311700 22007KT P6SM VCSH OVC040
     FM312000 22007KT 5SM -SHRA BR OVC030 PROB30 3121/0101 3SM TSRA
      OVC020CB
     FM010200 20003KT 5SM BR VCSH OVC035=



000
FTUS41 KALY 310900 AAA
TAFALB
TAF AMD
KALB 310926Z 3109/0106 17008KT P6SM SCT030 BKN150
      TEMPO 3109/3113 BKN030 OVC100
     FM311400 18009KT P6SM VCSH OVC040
     FM311800 18009KT 5SM -SHRA BR OVC030 PROB30 3119/3123 3SM TSRA
      OVC020CB
     FM010000 18005KT 5SM BR VCSH OVC030=



000
FTUS41 KALY 310500 RRA
TAFPOU
TAF
KPOU 310548Z 3106/0106 VRB02KT P6SM OVC035
      TEMPO 3106/3109 OVC030
     FM310900 19003KT P6SM OVC030
     FM311500 22007KT P6SM VCSH OVC040
     FM312000 22007KT 5SM -SHRA BR OVC030 PROB30 3121/0101 3SM TSRA
      OVC020CB
     FM010200 20003KT 5SM BR VCSH OVC035=



000
FTUS41 KALY 310500 RRA
TAFALB
TAF
KALB 310548Z 3106/0106 17007KT P6SM SCT035 BKN150
      TEMPO 3106/3108 OVC035
     FM310800 17007KT P6SM OVC030
     FM311500 18009KT P6SM VCSH OVC040
     FM311900 18009KT 5SM -SHRA BR OVC030 PROB30 3120/3124 3SM TSRA
      OVC020CB
     FM010100 18005KT 5SM BR VCSH OVC030=



000
FTUS41 KALY 310500 RRA
TAFGFL
TAF
KGFL 310548Z 3106/0106 20009KT P6SM OVC030
     FM310800 20007KT 6SM BR OVC020
     FM311500 21007KT P6SM VCSH OVC035
     FM311900 21007KT 5SM -SHRA BR OVC030 PROB30 3120/3124 3SM TSRA
      OVC020CB
     FM010100 20003KT 5SM BR VCSH OVC025=



000
FTUS41 KALY 310400 AAB
TAFPOU
TAF AMD
KPOU 310416Z 3104/3124 00000KT P6SM OVC035
     FM310500 00000KT P6SM OVC030
     FM310700 17003KT 5SM BR OVC018
     FM311500 20005KT P6SM VCSH SCT015 OVC025
     FM311800 21005KT 6SM -RA BR OVC040
     FM312200 20003KT 4SM -RA BR OVC025=



000
FTUS41 KALY 310300 AAA
TAFPOU
TAF AMD
KPOU 310319Z 3103/3124 VRB04KT P6SM OVC035
     FM310400 17003KT P6SM OVC030
     FM310600 17003KT 5SM BR OVC018
     FM311500 20005KT P6SM VCSH SCT015 OVC025
     FM311800 21005KT 6SM -RA BR OVC040
     FM312200 20003KT 4SM -RA BR OVC025=



000
FTUS41 KALY 310000 AAA
TAFALB
TAF AMD
KALB 310100Z 3101/3124 18009KT P6SM FEW045 FEW150 BKN250
     FM310500 18007KT 6SM BR SCT015 OVC020
     FM310900 18007KT 5SM BR OVC015
     FM311500 18009KT P6SM VCSH SCT015 OVC025
     FM311800 19007KT 6SM -RA BR OVC030
     FM312200 20007KT 2SM -RA BR OVC025=



000
FTUS41 KALY 310000 AAA
TAFGFL
TAF AMD
KGFL 310059Z 3101/3124 21006KT P6SM BKN250
     FM310600 19004KT 5SM BR VCSH SCT015 OVC020
     FM311500 19006KT P6SM VCSH SCT015 OVC025
     FM311800 19006KT 4SM -RA BR OVC030
     FM312200 21005KT 2SM -RA BR OVC025=



000
FTUS41 KALY 302300
TAFPOU
TAF
KPOU 302337Z 3100/3124 VRB04KT P6SM OVC040
     FM310300 17003KT P6SM OVC020
     FM310600 17003KT 5SM BR OVC015
     FM311500 20005KT P6SM VCSH SCT015 OVC025
     FM311800 21005KT 6SM -RA BR OVC040
     FM312200 20003KT 4SM -RA BR OVC025=



000
FTUS41 KALY 302300
TAFALB
TAF
KALB 302337Z 3100/3124 18009G19KT P6SM FEW045 FEW150 SCT220
     FM310500 18007KT 6SM BR SCT015 OVC020
     FM310900 18007KT 5SM BR OVC015
     FM311500 18009KT P6SM VCSH SCT015 OVC025
     FM311800 19007KT 6SM -RA BR OVC030
     FM312200 20007KT 2SM -RA BR OVC025=



000
FTUS41 KALY 302300
TAFGFL
TAF
KGFL 302337Z 3100/3124 19007KT P6SM SCT045
     FM310600 19004KT 5SM BR VCSH SCT015 OVC020
     FM311500 19006KT P6SM VCSH SCT015 OVC025
     FM311800 19006KT 4SM -RA BR OVC030
     FM312200 21005KT 2SM -RA BR OVC025=



    US Dept of Commerce
    National Oceanic and Atmospheric Administration
    National Weather Service
    1325 East West Highway
    Silver Spring, MD 20910
    Page Author: NWS Internet Services Team
Disclaimer
Information Quality
Credits
Glossary
Privacy Policy
Freedom of Information Act (FOIA)
About Us
Career Opportunities